Time;durP1;ratioP1;P1;durP2;ratioP2;P2;SDS_P1;SDS_P2;PMS_P1;PMS_P2;Temp;Humidity;BMP_temperature;BMP_pressure;BME280_temperature;BME280_humidity;BME280_pressure;Samples;Min_cycle;Max_cycle;Signal;HPM_P1;HPM_P2
2022/03/15 00:00:20;;;;;;;24.80;17.87;;;7.40;99.90;;;;;;5975381;24;20929;-69
2022/03/15 00:03:08;;;;;;;22.67;15.83;;;7.40;99.90;;;;;;5967595;24;20930;-70
2022/03/15 00:05:59;;;;;;;27.30;18.40;;;7.30;99.90;;;;;;5974641;24;20537;-70
2022/03/15 00:08:48;;;;;;;23.90;17.67;;;7.30;99.90;;;;;;5974283;24;20541;-70
2022/03/15 00:11:40;;;;;;;23.50;17.07;;;7.30;99.90;;;;;;5976327;24;20478;-70
2022/03/15 00:14:28;;;;;;;22.83;16.27;;;7.30;99.90;;;;;;5997500;23;20634;-70
2022/03/15 00:17:17;;;;;;;22.77;17.37;;;7.20;99.90;;;;;;6002971;23;21006;-70
2022/03/15 00:20:06;;;;;;;27.40;17.83;;;7.20;99.90;;;;;;6003714;23;20437;-70
2022/03/15 00:22:57;;;;;;;24.17;17.70;;;7.10;99.90;;;;;;5996133;23;20461;-70
2022/03/15 00:25:45;;;;;;;24.20;17.87;;;7.10;99.90;;;;;;5999890;23;20532;-70
2022/03/15 00:28:36;;;;;;;26.20;18.47;;;7.10;99.90;;;;;;6003175;23;20455;-70
2022/03/15 00:31:24;;;;;;;26.23;18.53;;;7.10;99.90;;;;;;6003146;23;20425;-70
2022/03/15 00:34:12;;;;;;;27.17;18.93;;;7.10;99.90;;;;;;6001012;23;20471;-70
2022/03/15 00:37:03;;;;;;;25.83;17.77;;;7.00;99.90;;;;;;6001389;23;20500;-69
2022/03/15 00:39:51;;;;;;;25.67;18.17;;;7.00;99.90;;;;;;5995958;23;20798;-69
2022/03/15 00:42:39;;;;;;;23.70;18.47;;;7.00;99.90;;;;;;6002266;23;20536;-70
2022/03/15 00:45:29;;;;;;;25.13;17.40;;;7.00;99.90;;;;;;6003419;23;20446;-70
2022/03/15 00:48:19;;;;;;;30.63;19.27;;;7.00;99.90;;;;;;6004769;23;20528;-70
2022/03/15 00:51:07;;;;;;;26.77;19.23;;;7.00;99.90;;;;;;6004473;23;20509;-70
2022/03/15 00:53:55;;;;;;;28.43;19.03;;;7.00;99.90;;;;;;6004100;23;20902;-70
2022/03/15 00:56:43;;;;;;;34.37;20.63;;;6.90;99.90;;;;;;6005208;23;21325;-70
2022/03/15 00:59:32;;;;;;;30.90;19.97;;;6.90;99.90;;;;;;5997027;23;20414;-70
2022/03/15 01:02:21;;;;;;;26.03;20.00;;;6.90;99.90;;;;;;6005061;23;20751;-70
2022/03/15 01:05:10;;;;;;;34.23;20.80;;;6.90;99.90;;;;;;6002415;23;20464;-70
2022/03/15 01:07:58;;;;;;;30.57;19.13;;;6.90;99.90;;;;;;6004618;23;20492;-70
2022/03/15 01:10:46;;;;;;;30.30;18.80;;;6.80;99.90;;;;;;6006310;23;20414;-70
2022/03/15 01:13:34;;;;;;;27.80;18.93;;;6.80;99.90;;;;;;6003114;23;20532;-70
2022/03/15 01:16:22;;;;;;;30.83;19.20;;;6.80;99.90;;;;;;6005635;23;20424;-70
2022/03/15 01:19:12;;;;;;;30.57;19.03;;;6.80;99.90;;;;;;6013915;23;20450;-70
2022/03/15 01:22:01;;;;;;;28.63;18.80;;;6.80;99.90;;;;;;6004534;23;20473;-70
2022/03/15 01:24:49;;;;;;;28.40;18.63;;;6.80;99.90;;;;;;6001076;23;20971;-70
2022/03/15 01:27:37;;;;;;;28.97;19.30;;;6.80;99.90;;;;;;6003419;23;20450;-70
2022/03/15 01:30:26;;;;;;;34.93;20.23;;;6.80;99.90;;;;;;6003086;23;20539;-70
2022/03/15 01:33:14;;;;;;;34.97;20.17;;;6.90;99.90;;;;;;6002651;23;20491;-70
2022/03/15 01:36:04;;;;;;;32.97;19.93;;;6.80;99.90;;;;;;5976008;24;20465;-69
2022/03/15 01:38:53;;;;;;;35.47;19.97;;;6.80;99.90;;;;;;5976040;24;20497;-69
2022/03/15 01:41:44;;;;;;;33.60;20.23;;;6.80;99.90;;;;;;5968633;24;20514;-70
2022/03/15 01:44:33;;;;;;;34.00;21.43;;;6.80;99.90;;;;;;5984538;23;20532;-69
2022/03/15 01:47:21;;;;;;;36.67;22.40;;;6.70;99.90;;;;;;6003656;23;20486;-69
2022/03/15 01:50:10;;;;;;;34.63;20.40;;;6.80;99.90;;;;;;6004397;23;20557;-70
2022/03/15 01:53:00;;;;;;;37.00;22.63;;;6.70;99.90;;;;;;6004045;23;20517;-70
2022/03/15 01:55:49;;;;;;;36.90;21.40;;;6.70;99.90;;;;;;6001220;23;20477;-70
2022/03/15 01:58:37;;;;;;;33.70;21.17;;;6.70;99.90;;;;;;6003768;23;20441;-70
2022/03/15 02:01:25;;;;;;;34.60;20.90;;;6.70;99.90;;;;;;6003902;23;20514;-69
2022/03/15 02:04:15;;;;;;;33.47;20.40;;;6.80;99.90;;;;;;5994896;23;20457;-70
2022/03/15 02:07:05;;;;;;;37.00;21.17;;;6.80;99.90;;;;;;6005326;23;20901;-70
2022/03/15 02:09:55;;;;;;;35.37;21.00;;;6.80;99.90;;;;;;6003463;23;20516;-70
2022/03/15 02:12:43;;;;;;;31.90;18.87;;;6.80;99.90;;;;;;6003293;23;20939;-70
2022/03/15 02:15:31;;;;;;;34.40;20.23;;;6.70;99.90;;;;;;6010236;23;20450;-70
2022/03/15 02:18:21;;;;;;;34.37;19.73;;;6.70;99.90;;;;;;6010324;23;20445;-70
2022/03/15 02:21:11;;;;;;;29.47;18.60;;;6.70;99.90;;;;;;6019757;23;20413;-70
2022/03/15 02:23:59;;;;;;;38.40;20.50;;;6.70;99.90;;;;;;6000669;23;20603;-70
2022/03/15 02:26:47;;;;;;;34.63;21.60;;;6.70;99.90;;;;;;6004373;23;20418;-70
2022/03/15 02:29:35;;;;;;;38.63;21.57;;;6.70;99.90;;;;;;6003714;23;20999;-71
2022/03/15 02:32:23;;;;;;;35.90;22.33;;;6.70;99.90;;;;;;6003697;23;20660;-70
2022/03/15 02:35:11;;;;;;;38.97;23.27;;;6.70;99.90;;;;;;6004116;23;20737;-70
2022/03/15 02:38:01;;;;;;;39.70;24.93;;;6.70;99.90;;;;;;6004985;23;20485;-70
2022/03/15 02:40:49;;;;;;;40.40;23.23;;;6.70;99.90;;;;;;5993559;23;20437;-70
2022/03/15 02:43:37;;;;;;;41.47;23.20;;;6.60;99.90;;;;;;6002337;23;20536;-70
2022/03/15 02:46:29;;;;;;;44.03;24.30;;;6.70;99.90;;;;;;6004220;23;20516;-70
2022/03/15 02:49:18;;;;;;;40.10;23.77;;;6.70;99.90;;;;;;6004012;23;20418;-70
2022/03/15 02:52:07;;;;;;;38.27;22.60;;;6.50;99.90;;;;;;6004364;23;21007;-70
2022/03/15 02:54:57;;;;;;;37.60;21.60;;;6.50;99.90;;;;;;6001389;23;20613;-70
2022/03/15 02:57:46;;;;;;;34.93;21.50;;;6.50;99.90;;;;;;6004227;23;20517;-69
2022/03/15 03:00:34;;;;;;;39.53;21.40;;;6.50;99.90;;;;;;6003558;23;20414;-70
2022/03/15 03:03:23;;;;;;;42.80;23.97;;;6.50;99.90;;;;;;5997039;23;20434;-70
2022/03/15 03:06:12;;;;;;;40.53;25.03;;;6.40;99.90;;;;;;6002495;23;20793;-69
2022/03/15 03:09:00;;;;;;;33.67;21.57;;;6.40;99.90;;;;;;6003395;23;20798;-69
2022/03/15 03:11:49;;;;;;;33.10;20.77;;;6.30;99.90;;;;;;6004711;23;20545;-69
2022/03/15 03:14:37;;;;;;;34.27;19.93;;;6.20;99.90;;;;;;6002888;23;20449;-69
2022/03/15 03:17:26;;;;;;;31.40;20.20;;;6.20;99.90;;;;;;6002414;23;20532;-70
2022/03/15 03:20:19;;;;;;;33.90;21.20;;;6.30;99.90;;;;;;6002632;23;20470;-69
2022/03/15 03:23:08;;;;;;;33.93;20.30;;;6.30;99.90;;;;;;6003954;23;20536;-69
2022/03/15 03:25:56;;;;;;;34.17;20.70;;;6.30;99.90;;;;;;6003038;23;20853;-69
2022/03/15 03:28:46;;;;;;;31.23;21.23;;;6.10;99.90;;;;;;6003175;23;20498;-69
2022/03/15 03:31:34;;;;;;;32.20;20.67;;;6.10;99.90;;;;;;6001291;23;20525;-70
2022/03/15 03:34:22;;;;;;;35.27;20.43;;;6.10;99.90;;;;;;6002895;23;20828;-69
2022/03/15 03:37:10;;;;;;;33.97;21.87;;;6.00;99.90;;;;;;6004448;23;20544;-70
2022/03/15 03:39:59;;;;;;;32.40;21.97;;;6.10;99.90;;;;;;6007213;23;21181;-70
2022/03/15 03:42:47;;;;;;;35.47;21.93;;;6.10;99.90;;;;;;6003147;23;20477;-70
2022/03/15 03:45:37;;;;;;;29.63;20.57;;;6.10;99.90;;;;;;5977096;23;21048;-69
2022/03/15 03:48:25;;;;;;;36.30;22.20;;;6.10;99.90;;;;;;5977450;24;20499;-70
2022/03/15 03:51:15;;;;;;;34.87;22.20;;;6.10;99.90;;;;;;5974243;24;20495;-70
2022/03/15 03:54:03;;;;;;;36.00;23.20;;;6.10;99.90;;;;;;5972796;23;20450;-70
2022/03/15 03:56:52;;;;;;;36.07;23.90;;;6.00;99.90;;;;;;5975822;24;20776;-70
2022/03/15 03:59:40;;;;;;;35.20;23.67;;;6.00;99.90;;;;;;5976032;24;20422;-71
2022/03/15 04:02:35;;;;;;;31.60;21.80;;;6.00;99.90;;;;;;5968111;24;20972;-69
2022/03/15 04:05:24;;;;;;;31.40;21.20;;;5.90;99.90;;;;;;5977599;23;20506;-70
2022/03/15 04:08:13;;;;;;;28.57;20.77;;;5.90;99.90;;;;;;5975501;24;20505;-70
2022/03/15 04:11:02;;;;;;;29.70;21.97;;;5.90;99.90;;;;;;5976172;24;20537;-70
2022/03/15 04:13:50;;;;;;;29.10;20.97;;;6.00;99.90;;;;;;5984906;23;21043;-70
2022/03/15 04:16:38;;;;;;;29.10;20.57;;;5.90;99.90;;;;;;5977118;24;20422;-70
2022/03/15 04:19:28;;;;;;;29.00;20.60;;;5.80;99.90;;;;;;5986520;24;21048;-69
2022/03/15 04:22:17;;;;;;;29.30;20.47;;;5.90;99.90;;;;;;5973253;23;20422;-70
2022/03/15 04:25:06;;;;;;;27.63;19.20;;;5.80;99.90;;;;;;5978980;23;20960;-69
2022/03/15 04:27:59;;;;;;;26.47;21.30;;;5.80;99.90;;;;;;5982845;24;20515;-70
2022/03/15 04:30:48;;;;;;;29.77;20.37;;;5.70;99.90;;;;;;5983225;24;20891;-70
2022/03/15 04:33:36;;;;;;;32.10;21.73;;;5.70;99.90;;;;;;5992985;23;20502;-70
2022/03/15 04:36:25;;;;;;;30.03;21.20;;;5.60;99.90;;;;;;6021101;23;20562;-70
2022/03/15 04:39:14;;;;;;;28.87;22.03;;;5.60;99.90;;;;;;6006399;23;20870;-70
2022/03/15 04:42:02;;;;;;;28.80;22.27;;;5.60;99.90;;;;;;6000957;23;20549;-69
2022/03/15 04:44:50;;;;;;;26.40;20.33;;;5.60;99.90;;;;;;6010277;23;20537;-70
2022/03/15 04:47:40;;;;;;;27.00;20.10;;;5.70;99.90;;;;;;6006644;23;20493;-69
2022/03/15 04:50:30;;;;;;;27.53;19.70;;;5.80;99.90;;;;;;6014833;23;20484;-70
2022/03/15 04:53:19;;;;;;;28.93;21.13;;;5.80;99.90;;;;;;6009305;23;20523;-69
2022/03/15 04:56:07;;;;;;;27.40;20.00;;;5.80;99.90;;;;;;6005212;23;20468;-70
2022/03/15 04:58:56;;;;;;;32.50;21.53;;;5.80;99.90;;;;;;6007702;23;20485;-70
2022/03/15 05:01:44;;;;;;;29.33;22.20;;;5.80;99.90;;;;;;6009520;23;20513;-69
2022/03/15 05:04:32;;;;;;;29.87;21.77;;;5.80;99.90;;;;;;5984002;23;20454;-70
2022/03/15 05:07:20;;;;;;;34.17;23.13;;;5.80;99.90;;;;;;5956595;24;20446;-69
2022/03/15 05:13:18;;;;;;;37.13;23.07;;;5.80;99.90;;;;;;5979250;24;20450;-70
2022/03/15 05:16:06;;;;;;;32.50;22.00;;;5.80;99.90;;;;;;5977313;24;20453;-70
2022/03/15 05:18:56;;;;;;;31.43;23.10;;;5.80;99.90;;;;;;5981438;24;20415;-70
2022/03/15 05:21:44;;;;;;;29.70;21.73;;;5.80;99.90;;;;;;5979506;24;20502;-70
2022/03/15 05:24:32;;;;;;;35.00;23.67;;;5.90;99.90;;;;;;5969614;24;20531;-70
2022/03/15 05:27:21;;;;;;;41.10;24.90;;;5.90;99.90;;;;;;5979018;24;20425;-70
2022/03/15 05:30:10;;;;;;;43.20;26.50;;;5.80;99.90;;;;;;5977146;24;20425;-69
2022/03/15 05:32:59;;;;;;;50.33;29.70;;;5.90;99.90;;;;;;5978465;24;21016;-70
2022/03/15 05:35:47;;;;;;;51.93;30.40;;;5.90;99.90;;;;;;5978242;24;20853;-70
2022/03/15 05:38:35;;;;;;;56.60;31.70;;;5.80;99.90;;;;;;5978727;24;20555;-70
2022/03/15 05:41:23;;;;;;;63.87;32.73;;;5.80;99.90;;;;;;5978428;24;20510;-70
2022/03/15 05:44:16;;;;;;;65.57;31.80;;;5.80;99.90;;;;;;5969992;24;20458;-70
2022/03/15 05:47:04;;;;;;;65.33;32.27;;;5.70;99.90;;;;;;5979707;24;20446;-69
2022/03/15 05:49:52;;;;;;;67.80;33.30;;;5.70;99.90;;;;;;5977531;24;20442;-70
2022/03/15 05:52:40;;;;;;;59.53;30.87;;;5.70;99.90;;;;;;5979104;24;20510;-70
2022/03/15 05:55:28;;;;;;;64.20;31.33;;;5.70;99.90;;;;;;5976939;24;20454;-69
2022/03/15 05:58:17;;;;;;;64.47;33.37;;;5.80;99.90;;;;;;5980128;24;20541;-70
2022/03/15 06:01:06;;;;;;;66.20;32.23;;;5.80;99.90;;;;;;5979700;24;20498;-70
2022/03/15 06:03:54;;;;;;;76.10;36.50;;;5.80;99.90;;;;;;5970737;24;20519;-70
2022/03/15 06:06:42;;;;;;;65.37;34.03;;;5.80;99.90;;;;;;5979418;24;20918;-70
2022/03/15 06:09:30;;;;;;;63.90;33.00;;;5.80;99.90;;;;;;5976988;24;20450;-70
2022/03/15 06:12:20;;;;;;;60.80;32.63;;;5.80;99.90;;;;;;5980130;24;20525;-70
2022/03/15 06:15:09;;;;;;;71.77;32.50;;;5.70;99.90;;;;;;5949831;24;20526;-70
2022/03/15 06:18:01;;;;;;;73.97;35.43;;;5.70;99.90;;;;;;5951740;24;20528;-69
2022/03/15 06:20:49;;;;;;;69.07;35.20;;;5.70;99.90;;;;;;5952194;24;20431;-69
2022/03/15 06:23:37;;;;;;;71.37;35.17;;;5.70;99.90;;;;;;5946099;24;20847;-70
2022/03/15 06:26:46;;;;;;;83.17;34.60;;;5.60;99.90;;;;;;5952021;24;20427;-70
2022/03/15 06:29:35;;;;;;;73.77;37.30;;;5.50;99.90;;;;;;5951486;24;20505;-70
2022/03/15 06:32:23;;;;;;;65.43;34.97;;;5.50;99.90;;;;;;5949255;24;20538;-69
2022/03/15 06:35:14;;;;;;;73.63;34.93;;;5.50;99.90;;;;;;5951076;24;20527;-69
2022/03/15 06:38:02;;;;;;;83.00;34.03;;;5.40;99.90;;;;;;5951131;24;20918;-69
2022/03/15 06:40:51;;;;;;;73.53;33.40;;;5.50;99.90;;;;;;5952399;24;20570;-69
2022/03/15 06:43:40;;;;;;;64.57;32.10;;;5.50;99.90;;;;;;5942120;24;20444;-69
2022/03/15 06:46:29;;;;;;;64.23;34.10;;;5.50;99.90;;;;;;5952575;24;20447;-69
2022/03/15 06:49:23;;;;;;;70.50;33.70;;;5.50;99.90;;;;;;5951142;24;20424;-70
2022/03/15 06:52:13;;;;;;;75.33;33.83;;;5.60;99.90;;;;;;5957426;24;20451;-70
2022/03/15 06:55:01;;;;;;;64.33;32.63;;;5.80;99.90;;;;;;5950057;24;20448;-70
2022/03/15 06:57:49;;;;;;;71.27;31.73;;;5.70;99.90;;;;;;5952628;24;20419;-69
2022/03/15 07:00:37;;;;;;;57.57;30.07;;;5.70;99.90;;;;;;5950100;24;20431;-69
2022/03/15 07:03:26;;;;;;;55.30;31.80;;;5.70;99.90;;;;;;5947015;24;20953;-69
2022/03/15 07:06:16;;;;;;;65.23;32.87;;;5.70;99.90;;;;;;5949004;24;20447;-70
2022/03/15 07:09:05;;;;;;;57.50;31.97;;;5.60;99.90;;;;;;5952024;24;20517;-70
2022/03/15 07:11:53;;;;;;;65.60;33.03;;;5.60;99.90;;;;;;5949544;24;20526;-70
2022/03/15 07:14:43;;;;;;;62.17;32.63;;;5.60;99.90;;;;;;5975084;24;20545;-69
2022/03/15 07:17:31;;;;;;;57.40;31.70;;;5.70;99.90;;;;;;5979183;24;20478;-69
2022/03/15 07:20:19;;;;;;;57.27;32.83;;;5.70;99.90;;;;;;5972429;24;20708;-69
2022/03/15 07:23:08;;;;;;;52.60;30.57;;;5.80;99.90;;;;;;5970925;24;20430;-71
2022/03/15 07:25:57;;;;;;;51.27;30.10;;;5.70;99.90;;;;;;6004730;23;20552;-70
2022/03/15 07:28:45;;;;;;;54.57;30.77;;;5.70;99.90;;;;;;6006037;23;20817;-69
2022/03/15 07:31:34;;;;;;;58.60;32.30;;;5.60;99.90;;;;;;6004216;23;20799;-69
2022/03/15 07:34:22;;;;;;;55.57;30.07;;;5.70;99.90;;;;;;6004027;23;20545;-69
2022/03/15 07:37:11;;;;;;;56.00;32.17;;;5.70;99.90;;;;;;6004899;23;20485;-69
2022/03/15 07:40:00;;;;;;;56.13;33.33;;;5.70;99.90;;;;;;6007362;23;20822;-70
2022/03/15 07:42:51;;;;;;;57.70;31.70;;;5.80;99.90;;;;;;5992282;23;20441;-70
2022/03/15 07:45:39;;;;;;;55.87;32.40;;;5.70;99.90;;;;;;6005906;23;20453;-70
2022/03/15 07:48:27;;;;;;;61.73;33.40;;;5.80;99.90;;;;;;6006624;23;20426;-70
2022/03/15 07:51:15;;;;;;;52.87;31.60;;;5.80;99.90;;;;;;6005149;23;20418;-70
2022/03/15 07:54:04;;;;;;;53.27;33.00;;;5.80;99.90;;;;;;6003676;23;20449;-69
2022/03/15 07:56:52;;;;;;;51.60;31.23;;;5.80;99.90;;;;;;6005173;23;20446;-69
2022/03/15 07:59:44;;;;;;;53.20;31.20;;;5.80;99.90;;;;;;6007169;23;20757;-69
2022/03/15 08:02:32;;;;;;;50.47;32.57;;;5.70;99.90;;;;;;6000567;23;20470;-69
2022/03/15 08:05:28;;;;;;;58.87;35.60;;;5.80;99.90;;;;;;5983517;23;20450;-69
2022/03/15 08:08:16;;;;;;;50.93;32.63;;;5.70;99.90;;;;;;5978792;24;20434;-70
2022/03/15 08:11:07;;;;;;;55.17;34.13;;;5.80;99.90;;;;;;5981315;24;20816;-69
2022/03/15 08:13:55;;;;;;;57.10;32.10;;;5.80;99.90;;;;;;5972973;24;20545;-69
2022/03/15 08:16:45;;;;;;;54.63;32.00;;;5.80;99.90;;;;;;5979904;24;20494;-69
2022/03/15 08:19:33;;;;;;;56.07;31.53;;;5.90;99.90;;;;;;5967148;24;20955;-69
2022/03/15 08:22:22;;;;;;;50.90;30.37;;;5.90;99.90;;;;;;5977881;24;20406;-69
2022/03/15 08:25:11;;;;;;;52.70;31.10;;;5.90;99.90;;;;;;5977330;24;20481;-69
2022/03/15 08:28:00;;;;;;;55.90;33.97;;;6.00;99.90;;;;;;5957959;24;20415;-69
2022/03/15 08:30:49;;;;;;;55.03;32.50;;;6.00;99.90;;;;;;5986846;24;20426;-69
2022/03/15 08:33:38;;;;;;;55.10;33.80;;;6.10;99.90;;;;;;5977845;24;20465;-68
2022/03/15 08:36:26;;;;;;;56.30;33.20;;;6.10;99.90;;;;;;5976740;24;20784;-69
2022/03/15 08:39:15;;;;;;;56.80;33.17;;;6.10;99.90;;;;;;5985631;24;20506;-69
2022/03/15 08:42:04;;;;;;;57.50;34.33;;;6.20;99.90;;;;;;5974121;24;20438;-69
2022/03/15 08:44:52;;;;;;;53.50;32.00;;;6.20;99.90;;;;;;5979927;24;20555;-69
2022/03/15 08:47:41;;;;;;;52.47;32.63;;;6.30;99.90;;;;;;5975963;24;21038;-69
2022/03/15 08:50:31;;;;;;;52.53;31.83;;;6.40;99.90;;;;;;5977015;24;20871;-68
2022/03/15 08:53:19;;;;;;;50.50;30.97;;;6.40;99.90;;;;;;5974575;24;20491;-69
2022/03/15 08:56:07;;;;;;;53.40;34.00;;;6.50;99.90;;;;;;6004620;23;20448;-69
2022/03/15 08:58:55;;;;;;;50.40;32.00;;;6.50;99.90;;;;;;6003627;23;20553;-69
2022/03/15 09:01:44;;;;;;;55.23;32.30;;;6.60;99.90;;;;;;6005235;23;20453;-69
2022/03/15 09:04:33;;;;;;;56.53;32.57;;;6.60;99.90;;;;;;6003394;23;20460;-69
2022/03/15 09:07:22;;;;;;;56.20;33.00;;;6.70;99.90;;;;;;6003864;23;20927;-69
2022/03/15 09:10:11;;;;;;;53.40;33.37;;;6.80;99.90;;;;;;6007267;23;21044;-69
2022/03/15 09:12:59;;;;;;;58.03;33.30;;;6.90;99.90;;;;;;6006918;23;20445;-68
2022/03/15 09:15:48;;;;;;;57.63;33.13;;;7.00;99.90;;;;;;5999536;23;20456;-69
2022/03/15 09:18:36;;;;;;;56.20;32.53;;;7.00;99.90;;;;;;6004791;23;20426;-69
2022/03/15 09:21:24;;;;;;;55.30;32.63;;;7.00;99.90;;;;;;6006245;23;20505;-69
2022/03/15 09:24:14;;;;;;;58.60;34.30;;;7.10;99.90;;;;;;5997228;23;20545;-69
2022/03/15 09:27:03;;;;;;;55.83;32.10;;;7.10;99.90;;;;;;5977234;24;20869;-69
2022/03/15 09:29:53;;;;;;;54.77;34.23;;;7.20;99.90;;;;;;5983724;24;20494;-69
2022/03/15 09:32:41;;;;;;;58.03;33.40;;;7.20;99.90;;;;;;5983796;24;20486;-69
2022/03/15 09:35:29;;;;;;;61.07;35.27;;;7.30;99.90;;;;;;5978858;23;20529;-68
2022/03/15 09:38:21;;;;;;;64.20;35.53;;;7.40;99.90;;;;;;5975992;24;20551;-69
2022/03/15 09:41:11;;;;;;;63.67;36.60;;;7.50;99.90;;;;;;5977347;24;20419;-69
2022/03/15 09:44:00;;;;;;;58.53;34.93;;;7.50;99.90;;;;;;5975854;23;20952;-69
2022/03/15 09:46:51;;;;;;;48.73;32.77;;;7.50;99.90;;;;;;5977404;24;20773;-69
2022/03/15 09:49:46;;;;;;;52.57;33.33;;;7.50;99.90;;;;;;5976911;24;20423;-69
2022/03/15 09:52:39;;;;;;;51.10;33.70;;;7.60;99.90;;;;;;5977601;24;20442;-69
2022/03/15 09:55:28;;;;;;;45.90;31.77;;;7.70;99.90;;;;;;5970260;23;20454;-69
2022/03/15 09:58:21;;;;;;;47.13;31.50;;;7.60;99.90;;;;;;5977605;24;20453;-69
2022/03/15 10:01:18;;;;;;;51.20;32.27;;;7.70;99.90;;;;;;5977325;24;20450;-69
2022/03/15 10:04:07;;;;;;;46.43;30.10;;;7.80;99.90;;;;;;5976445;23;20520;-69
2022/03/15 10:06:56;;;;;;;44.63;31.10;;;7.80;99.90;;;;;;5977183;24;20411;-69
2022/03/15 10:09:44;;;;;;;43.90;29.97;;;7.90;99.90;;;;;;5976747;24;20905;-69
2022/03/15 10:12:32;;;;;;;47.10;30.87;;;7.90;99.90;;;;;;5978345;24;20525;-69
2022/03/15 10:15:22;;;;;;;43.50;32.20;;;8.00;99.90;;;;;;5943743;24;20846;-69
2022/03/15 10:18:18;;;;;;;47.23;31.03;;;8.10;99.90;;;;;;5950243;24;20423;-69
2022/03/15 10:21:06;;;;;;;44.53;31.93;;;8.10;99.90;;;;;;5950080;24;20415;-69
2022/03/15 10:23:55;;;;;;;45.60;30.83;;;8.20;99.90;;;;;;5951049;24;20557;-69
2022/03/15 10:26:44;;;;;;;43.57;28.60;;;8.30;99.90;;;;;;5977518;24;20483;-69
2022/03/15 10:29:34;;;;;;;43.63;31.40;;;8.40;99.90;;;;;;5976597;24;20903;-69
2022/03/15 10:32:24;;;;;;;39.93;30.00;;;8.50;99.90;;;;;;5976107;24;20523;-69
2022/03/15 10:35:12;;;;;;;40.80;29.77;;;8.60;99.90;;;;;;5948587;24;20463;-69
2022/03/15 10:38:00;;;;;;;38.17;27.30;;;8.60;99.90;;;;;;5949529;24;20464;-69
2022/03/15 10:40:51;;;;;;;39.67;28.07;;;8.70;99.90;;;;;;5947760;24;20451;-70
2022/03/15 10:43:39;;;;;;;34.57;25.33;;;8.80;99.90;;;;;;5947108;24;20491;-69
2022/03/15 10:46:27;;;;;;;35.00;24.00;;;8.90;99.90;;;;;;5976924;24;20450;-70
2022/03/15 10:49:17;;;;;;;35.37;24.20;;;8.90;99.90;;;;;;5977439;23;20449;-70
2022/03/15 10:52:06;;;;;;;36.03;23.87;;;8.90;99.90;;;;;;5963289;23;20419;-70
2022/03/15 10:54:54;;;;;;;28.80;22.70;;;9.00;99.90;;;;;;5978941;24;20466;-69
2022/03/15 10:57:50;;;;;;;29.20;19.53;;;9.00;99.90;;;;;;5976766;24;20505;-69
2022/03/15 11:00:40;;;;;;;24.47;19.60;;;9.00;99.90;;;;;;5977958;23;20425;-69
2022/03/15 11:03:29;;;;;;;24.80;18.20;;;9.10;99.90;;;;;;5974820;24;20431;-70
2022/03/15 11:06:31;;;;;;;23.67;19.00;;;9.10;99.90;;;;;;5974143;24;21057;-70
2022/03/15 11:09:23;;;;;;;22.53;18.73;;;9.20;99.90;;;;;;5975314;24;20429;-70
2022/03/15 11:12:12;;;;;;;26.20;19.43;;;9.30;99.90;;;;;;5966773;24;20478;-68
2022/03/15 11:15:02;;;;;;;23.70;17.50;;;9.40;99.90;;;;;;6003121;23;20536;-67
2022/03/15 11:17:51;;;;;;;21.23;17.70;;;9.50;99.90;;;;;;6003334;23;20508;-69
2022/03/15 11:20:42;;;;;;;22.10;18.30;;;9.50;99.90;;;;;;6003304;23;20453;-68
2022/03/15 11:23:40;;;;;;;20.77;16.63;;;9.50;99.90;;;;;;6003243;23;20449;-68
2022/03/15 11:26:31;;;;;;;20.03;16.70;;;9.60;99.90;;;;;;6006185;23;20565;-68
2022/03/15 11:29:23;;;;;;;21.27;16.73;;;9.60;99.90;;;;;;6000652;23;20421;-74
2022/03/15 11:32:14;;;;;;;24.10;17.00;;;9.60;99.90;;;;;;6000020;23;20456;-68
2022/03/15 11:35:03;;;;;;;19.70;15.00;;;9.70;99.90;;;;;;6005370;23;20449;-68
2022/03/15 11:37:53;;;;;;;24.87;15.10;;;9.80;99.90;;;;;;6005172;23;20556;-68
2022/03/15 11:40:43;;;;;;;18.27;14.40;;;9.80;99.90;;;;;;5995134;23;20433;-68
2022/03/15 11:43:42;;;;;;;21.30;15.17;;;9.90;99.90;;;;;;6004828;23;20498;-68
2022/03/15 11:46:35;;;;;;;21.67;15.40;;;9.90;99.90;;;;;;5973277;24;20454;-68
2022/03/15 11:49:33;;;;;;;17.73;15.00;;;10.00;99.90;;;;;;5983432;24;20422;-69
2022/03/15 11:52:30;;;;;;;18.00;14.70;;;10.00;99.90;;;;;;5978348;24;20445;-69
2022/03/15 11:55:25;;;;;;;19.80;14.60;;;10.00;99.90;;;;;;5975747;24;20562;-69
2022/03/15 11:58:24;;;;;;;16.70;14.90;;;10.10;99.90;;;;;;5974605;24;20418;-69
2022/03/15 12:01:12;;;;;;;18.13;13.87;;;10.20;99.90;;;;;;5976368;24;20494;-70
2022/03/15 12:04:02;;;;;;;16.20;14.40;;;10.30;99.90;;;;;;5966851;24;20457;-68
2022/03/15 12:06:54;;;;;;;15.63;13.90;;;10.40;99.90;;;;;;5977253;24;20437;-68
2022/03/15 12:09:47;;;;;;;17.37;14.13;;;10.50;99.90;;;;;;5978805;24;20418;-68
2022/03/15 12:12:35;;;;;;;17.93;14.33;;;10.50;99.90;;;;;;5975734;24;20521;-68
2022/03/15 12:15:35;;;;;;;17.40;14.73;;;10.50;99.90;;;;;;5978074;24;20477;-68
2022/03/15 12:18:43;;;;;;;15.60;13.63;;;10.60;99.90;;;;;;5974238;24;20442;-71
2022/03/15 12:21:32;;;;;;;16.97;13.20;;;10.60;99.90;;;;;;5976258;24;20478;-69
2022/03/15 12:24:31;;;;;;;15.53;13.30;;;10.50;99.90;;;;;;5972386;24;20450;-69
2022/03/15 12:27:22;;;;;;;17.37;13.80;;;10.50;99.90;;;;;;5974629;24;20423;-68
2022/03/15 12:30:18;;;;;;;16.23;13.50;;;10.60;99.90;;;;;;5972869;24;20429;-67
2022/03/15 12:33:07;;;;;;;18.33;13.87;;;10.60;99.90;;;;;;5974433;24;20458;-68
2022/03/15 12:36:04;;;;;;;21.20;13.53;;;10.60;99.90;;;;;;5974138;24;20518;-68
2022/03/15 12:38:54;;;;;;;18.50;13.27;;;10.60;99.90;;;;;;5966970;24;21003;-68
2022/03/15 12:41:42;;;;;;;16.80;13.50;;;10.70;99.90;;;;;;5968965;24;20521;-68
2022/03/15 12:44:40;;;;;;;17.47;15.10;;;10.80;99.90;;;;;;5975115;24;20510;-68
2022/03/15 12:47:35;;;;;;;17.00;13.37;;;10.80;99.90;;;;;;5976284;24;20450;-68
2022/03/15 12:50:31;;;;;;;16.37;13.70;;;10.80;99.90;;;;;;5974373;24;20583;-68
2022/03/15 12:53:20;;;;;;;20.00;13.33;;;10.80;99.90;;;;;;5985386;24;20442;-68
2022/03/15 12:56:10;;;;;;;18.83;14.20;;;10.90;99.90;;;;;;6002536;23;20492;-69
2022/03/15 12:58:59;;;;;;;18.20;12.93;;;10.90;99.90;;;;;;5993649;23;20441;-68
2022/03/15 13:01:47;;;;;;;16.50;12.63;;;10.90;99.90;;;;;;6003988;23;21100;-68
2022/03/15 13:04:46;;;;;;;17.40;12.90;;;11.00;99.90;;;;;;6003177;23;20927;-68
2022/03/15 13:07:36;;;;;;;17.47;12.20;;;11.10;99.90;;;;;;6005120;23;20618;-68
2022/03/15 13:10:28;;;;;;;20.60;13.40;;;11.20;99.90;;;;;;6003020;23;20481;-68
2022/03/15 13:13:27;;;;;;;18.70;12.97;;;11.30;99.90;;;;;;6003422;23;20528;-68
2022/03/15 13:16:15;;;;;;;14.53;11.90;;;11.50;99.90;;;;;;5974449;24;20546;-68
2022/03/15 13:19:04;;;;;;;15.57;11.53;;;11.60;99.90;;;;;;5975013;24;20421;-67
2022/03/15 13:21:53;;;;;;;18.20;13.33;;;11.70;99.90;;;;;;5974138;24;20467;-68
2022/03/15 13:24:43;;;;;;;14.47;11.77;;;11.90;99.90;;;;;;5988613;23;20466;-68
2022/03/15 13:27:39;;;;;;;17.80;11.50;;;12.00;99.90;;;;;;6013665;23;20477;-69
2022/03/15 13:30:28;;;;;;;15.47;11.17;;;12.20;99.90;;;;;;6002776;23;20424;-68
2022/03/15 13:33:27;;;;;;;16.93;10.70;;;12.50;99.90;;;;;;6013835;23;21437;-68
2022/03/15 13:36:19;;;;;;;17.63;12.43;;;12.80;99.90;;;;;;6004743;23;20544;-68
2022/03/15 13:39:08;;;;;;;15.63;12.47;;;13.00;99.90;;;;;;5999516;23;20728;-68
2022/03/15 13:42:00;;;;;;;13.93;11.87;;;13.10;99.90;;;;;;6006342;23;20505;-68
2022/03/15 13:44:54;;;;;;;16.43;12.47;;;13.20;99.90;;;;;;6002849;23;20931;-68
2022/03/15 13:47:50;;;;;;;14.20;11.90;;;13.30;99.90;;;;;;6004534;23;20453;-68
2022/03/15 13:50:38;;;;;;;16.27;11.73;;;13.20;99.90;;;;;;6013158;23;20521;-69
2022/03/15 13:53:27;;;;;;;20.10;12.77;;;13.10;99.90;;;;;;5995790;23;20530;-68
2022/03/15 13:56:17;;;;;;;17.13;13.30;;;13.00;99.90;;;;;;6012950;23;20468;-69
2022/03/15 13:59:09;;;;;;;17.40;13.23;;;12.90;99.90;;;;;;6021170;23;20478;-68
2022/03/15 14:01:59;;;;;;;18.17;13.83;;;13.10;99.90;;;;;;6006621;23;20425;-68
2022/03/15 14:04:59;;;;;;;21.60;14.73;;;13.20;99.90;;;;;;6004479;23;20461;-69
2022/03/15 14:07:48;;;;;;;18.80;13.90;;;13.30;99.90;;;;;;6003082;23;20549;-69
2022/03/15 14:10:37;;;;;;;22.50;13.60;;;13.40;99.90;;;;;;6004281;23;20414;-69
2022/03/15 14:13:29;;;;;;;18.20;13.23;;;13.30;99.90;;;;;;5995894;23;20541;-69
2022/03/15 14:16:21;;;;;;;18.53;13.37;;;13.20;99.90;;;;;;6003969;23;20497;-69
2022/03/15 14:19:13;;;;;;;19.63;14.10;;;13.20;99.90;;;;;;6004414;23;20424;-68
2022/03/15 14:22:07;;;;;;;17.53;13.13;;;13.10;99.90;;;;;;6003305;23;20794;-68
2022/03/15 14:24:57;;;;;;;14.07;11.50;;;12.90;99.90;;;;;;5986898;23;20783;-71
2022/03/15 14:27:46;;;;;;;18.17;12.13;;;12.80;99.90;;;;;;6004417;23;20462;-69
2022/03/15 14:30:34;;;;;;;16.97;12.83;;;12.70;99.90;;;;;;5997825;23;21139;-69
2022/03/15 14:33:24;;;;;;;12.33;10.90;;;12.60;99.90;;;;;;6003143;23;20812;-69